sensor_id;sensor_type;location;lat;lon;timestamp;P1;durP1;ratioP1;P2;durP2;ratioP2
16979;SDS011;42288;52.182;21.156;2024-01-27T00:00:30;35.07;;;19.07;;
16979;SDS011;42288;52.182;21.156;2024-01-27T00:02:55;32.17;;;14.17;;
16979;SDS011;42288;52.182;21.156;2024-01-27T00:05:21;27.37;;;13.80;;
16979;SDS011;42288;52.182;21.156;2024-01-27T00:07:46;25.30;;;12.10;;
16979;SDS011;42288;52.182;21.156;2024-01-27T00:10:12;30.53;;;15.00;;
16979;SDS011;42288;52.182;21.156;2024-01-27T00:12:38;25.90;;;11.60;;
16979;SDS011;42288;52.182;21.156;2024-01-27T00:15:04;17.57;;;9.10;;
16979;SDS011;42288;52.182;21.156;2024-01-27T00:17:31;17.63;;;8.40;;
16979;SDS011;42288;52.182;21.156;2024-01-27T00:19:57;17.13;;;7.17;;
16979;SDS011;42288;52.182;21.156;2024-01-27T00:22:22;18.83;;;5.77;;
16979;SDS011;42288;52.182;21.156;2024-01-27T00:24:48;14.77;;;5.43;;
16979;SDS011;42288;52.182;21.156;2024-01-27T00:27:13;10.23;;;3.83;;
16979;SDS011;42288;52.182;21.156;2024-01-27T00:29:39;13.23;;;4.17;;
16979;SDS011;42288;52.182;21.156;2024-01-27T00:32:05;5.87;;;3.33;;
16979;SDS011;42288;52.182;21.156;2024-01-27T00:34:30;10.03;;;3.00;;
16979;SDS011;42288;52.182;21.156;2024-01-27T00:36:57;9.33;;;2.20;;
16979;SDS011;42288;52.182;21.156;2024-01-27T00:39:22;9.80;;;2.30;;
16979;SDS011;42288;52.182;21.156;2024-01-27T00:41:48;13.43;;;2.53;;
16979;SDS011;42288;52.182;21.156;2024-01-27T00:44:14;9.37;;;2.50;;
16979;SDS011;42288;52.182;21.156;2024-01-27T00:46:39;9.47;;;2.20;;
16979;SDS011;42288;52.182;21.156;2024-01-27T00:49:05;7.40;;;2.10;;
16979;SDS011;42288;52.182;21.156;2024-01-27T00:51:30;13.63;;;2.50;;
16979;SDS011;42288;52.182;21.156;2024-01-27T00:53:57;11.50;;;2.40;;
16979;SDS011;42288;52.182;21.156;2024-01-27T00:56:23;8.20;;;2.47;;
16979;SDS011;42288;52.182;21.156;2024-01-27T00:58:48;6.77;;;2.30;;
16979;SDS011;42288;52.182;21.156;2024-01-27T01:01:14;9.43;;;2.27;;
16979;SDS011;42288;52.182;21.156;2024-01-27T01:03:40;12.37;;;2.27;;
16979;SDS011;42288;52.182;21.156;2024-01-27T01:06:05;9.97;;;2.20;;
16979;SDS011;42288;52.182;21.156;2024-01-27T01:08:31;13.63;;;2.97;;
16979;SDS011;42288;52.182;21.156;2024-01-27T01:10:57;10.93;;;2.60;;
16979;SDS011;42288;52.182;21.156;2024-01-27T01:13:22;12.90;;;2.70;;
16979;SDS011;42288;52.182;21.156;2024-01-27T01:15:48;14.23;;;3.00;;
16979;SDS011;42288;52.182;21.156;2024-01-27T01:18:13;16.20;;;2.50;;
16979;SDS011;42288;52.182;21.156;2024-01-27T01:20:39;17.43;;;2.80;;
16979;SDS011;42288;52.182;21.156;2024-01-27T01:23:04;10.40;;;2.30;;
16979;SDS011;42288;52.182;21.156;2024-01-27T01:25:30;14.53;;;2.47;;
16979;SDS011;42288;52.182;21.156;2024-01-27T01:27:56;10.77;;;2.57;;
16979;SDS011;42288;52.182;21.156;2024-01-27T01:30:21;11.50;;;2.57;;
16979;SDS011;42288;52.182;21.156;2024-01-27T01:32:47;13.73;;;2.30;;
16979;SDS011;42288;52.182;21.156;2024-01-27T01:35:12;13.20;;;2.57;;
16979;SDS011;42288;52.182;21.156;2024-01-27T01:37:38;10.80;;;2.20;;
16979;SDS011;42288;52.182;21.156;2024-01-27T01:40:04;17.97;;;2.90;;
16979;SDS011;42288;52.182;21.156;2024-01-27T01:42:31;15.63;;;2.57;;
16979;SDS011;42288;52.182;21.156;2024-01-27T01:44:57;14.30;;;2.80;;
16979;SDS011;42288;52.182;21.156;2024-01-27T01:47:22;11.33;;;2.60;;
16979;SDS011;42288;52.182;21.156;2024-01-27T01:49:48;16.47;;;2.87;;
16979;SDS011;42288;52.182;21.156;2024-01-27T01:52:14;15.97;;;2.90;;
16979;SDS011;42288;52.182;21.156;2024-01-27T01:54:48;13.73;;;2.37;;
16979;SDS011;42288;52.182;21.156;2024-01-27T01:57:14;10.50;;;2.47;;
16979;SDS011;42288;52.182;21.156;2024-01-27T01:59:40;15.07;;;2.83;;
16979;SDS011;42288;52.182;21.156;2024-01-27T02:02:06;16.93;;;2.63;;
16979;SDS011;42288;52.182;21.156;2024-01-27T02:04:41;12.20;;;2.30;;
16979;SDS011;42288;52.182;21.156;2024-01-27T02:07:07;16.43;;;2.60;;
16979;SDS011;42288;52.182;21.156;2024-01-27T02:09:33;12.83;;;2.33;;
16979;SDS011;42288;52.182;21.156;2024-01-27T02:11:59;11.77;;;2.33;;
16979;SDS011;42288;52.182;21.156;2024-01-27T02:14:24;12.57;;;2.57;;
16979;SDS011;42288;52.182;21.156;2024-01-27T02:16:52;16.97;;;2.57;;
16979;SDS011;42288;52.182;21.156;2024-01-27T02:19:18;14.77;;;2.93;;
16979;SDS011;42288;52.182;21.156;2024-01-27T02:21:44;16.43;;;3.03;;
16979;SDS011;42288;52.182;21.156;2024-01-27T02:24:09;12.77;;;2.73;;
16979;SDS011;42288;52.182;21.156;2024-01-27T02:26:35;14.20;;;2.97;;
16979;SDS011;42288;52.182;21.156;2024-01-27T02:29:01;13.47;;;2.83;;
16979;SDS011;42288;52.182;21.156;2024-01-27T02:31:26;15.90;;;2.80;;
16979;SDS011;42288;52.182;21.156;2024-01-27T02:33:52;17.73;;;3.10;;
16979;SDS011;42288;52.182;21.156;2024-01-27T02:36:17;11.20;;;3.57;;
16979;SDS011;42288;52.182;21.156;2024-01-27T02:38:43;11.93;;;3.17;;
16979;SDS011;42288;52.182;21.156;2024-01-27T02:41:09;18.23;;;3.23;;
16979;SDS011;42288;52.182;21.156;2024-01-27T02:43:36;15.53;;;2.93;;
16979;SDS011;42288;52.182;21.156;2024-01-27T02:46:01;17.03;;;3.57;;
16979;SDS011;42288;52.182;21.156;2024-01-27T02:48:27;21.90;;;3.83;;
16979;SDS011;42288;52.182;21.156;2024-01-27T02:50:52;16.57;;;3.80;;
16979;SDS011;42288;52.182;21.156;2024-01-27T02:53:18;17.50;;;3.40;;
16979;SDS011;42288;52.182;21.156;2024-01-27T02:55:43;18.03;;;3.90;;
16979;SDS011;42288;52.182;21.156;2024-01-27T02:58:09;16.37;;;3.10;;
16979;SDS011;42288;52.182;21.156;2024-01-27T03:00:35;16.47;;;3.47;;
16979;SDS011;42288;52.182;21.156;2024-01-27T03:03:01;19.13;;;3.40;;
16979;SDS011;42288;52.182;21.156;2024-01-27T03:05:26;17.00;;;3.03;;
16979;SDS011;42288;52.182;21.156;2024-01-27T03:07:52;18.20;;;4.10;;
16979;SDS011;42288;52.182;21.156;2024-01-27T03:10:17;25.10;;;3.93;;
16979;SDS011;42288;52.182;21.156;2024-01-27T03:12:43;20.73;;;3.13;;
16979;SDS011;42288;52.182;21.156;2024-01-27T03:15:08;24.83;;;3.80;;
16979;SDS011;42288;52.182;21.156;2024-01-27T03:17:34;12.30;;;2.97;;
16979;SDS011;42288;52.182;21.156;2024-01-27T03:19:59;16.57;;;3.53;;
16979;SDS011;42288;52.182;21.156;2024-01-27T03:22:25;19.57;;;3.73;;
16979;SDS011;42288;52.182;21.156;2024-01-27T03:24:50;15.53;;;3.83;;
16979;SDS011;42288;52.182;21.156;2024-01-27T03:27:18;21.17;;;4.17;;
16979;SDS011;42288;52.182;21.156;2024-01-27T03:29:43;24.73;;;3.87;;
16979;SDS011;42288;52.182;21.156;2024-01-27T03:32:09;17.03;;;3.33;;
16979;SDS011;42288;52.182;21.156;2024-01-27T03:34:34;21.97;;;4.13;;
16979;SDS011;42288;52.182;21.156;2024-01-27T03:37:00;19.03;;;3.50;;
16979;SDS011;42288;52.182;21.156;2024-01-27T03:39:25;18.23;;;4.20;;
16979;SDS011;42288;52.182;21.156;2024-01-27T03:41:51;16.40;;;3.27;;
16979;SDS011;42288;52.182;21.156;2024-01-27T03:44:16;22.50;;;4.73;;
16979;SDS011;42288;52.182;21.156;2024-01-27T03:46:42;21.03;;;3.87;;
16979;SDS011;42288;52.182;21.156;2024-01-27T03:49:07;27.00;;;4.53;;
16979;SDS011;42288;52.182;21.156;2024-01-27T03:51:33;24.97;;;3.97;;
16979;SDS011;42288;52.182;21.156;2024-01-27T03:53:58;18.90;;;3.70;;
16979;SDS011;42288;52.182;21.156;2024-01-27T03:56:24;19.20;;;4.33;;
16979;SDS011;42288;52.182;21.156;2024-01-27T03:58:49;22.67;;;3.90;;
16979;SDS011;42288;52.182;21.156;2024-01-27T04:01:15;27.07;;;4.20;;
16979;SDS011;42288;52.182;21.156;2024-01-27T04:03:40;21.77;;;4.00;;
16979;SDS011;42288;52.182;21.156;2024-01-27T04:06:06;26.67;;;4.73;;
16979;SDS011;42288;52.182;21.156;2024-01-27T04:08:31;19.87;;;4.00;;
16979;SDS011;42288;52.182;21.156;2024-01-27T04:10:57;21.57;;;3.93;;
16979;SDS011;42288;52.182;21.156;2024-01-27T04:13:23;20.60;;;3.93;;
16979;SDS011;42288;52.182;21.156;2024-01-27T04:15:48;17.57;;;3.73;;
16979;SDS011;42288;52.182;21.156;2024-01-27T04:18:16;25.87;;;4.20;;
16979;SDS011;42288;52.182;21.156;2024-01-27T04:20:41;21.50;;;4.53;;
16979;SDS011;42288;52.182;21.156;2024-01-27T04:23:07;22.80;;;4.90;;
16979;SDS011;42288;52.182;21.156;2024-01-27T04:25:33;22.60;;;3.70;;
16979;SDS011;42288;52.182;21.156;2024-01-27T04:27:58;22.33;;;4.37;;
16979;SDS011;42288;52.182;21.156;2024-01-27T04:30:24;23.30;;;4.70;;
16979;SDS011;42288;52.182;21.156;2024-01-27T04:32:49;26.90;;;4.87;;
16979;SDS011;42288;52.182;21.156;2024-01-27T04:35:16;25.03;;;4.53;;
16979;SDS011;42288;52.182;21.156;2024-01-27T04:37:42;19.00;;;3.80;;
16979;SDS011;42288;52.182;21.156;2024-01-27T04:40:09;19.87;;;4.13;;
16979;SDS011;42288;52.182;21.156;2024-01-27T04:42:37;15.63;;;3.77;;
16979;SDS011;42288;52.182;21.156;2024-01-27T04:45:03;22.67;;;4.10;;
16979;SDS011;42288;52.182;21.156;2024-01-27T04:47:30;20.60;;;4.33;;
16979;SDS011;42288;52.182;21.156;2024-01-27T04:49:56;18.23;;;3.67;;
16979;SDS011;42288;52.182;21.156;2024-01-27T04:52:22;20.87;;;3.37;;
16979;SDS011;42288;52.182;21.156;2024-01-27T04:54:48;22.60;;;4.07;;
16979;SDS011;42288;52.182;21.156;2024-01-27T04:57:13;18.83;;;4.10;;
16979;SDS011;42288;52.182;21.156;2024-01-27T04:59:39;20.87;;;4.13;;
16979;SDS011;42288;52.182;21.156;2024-01-27T05:02:05;20.53;;;4.10;;
16979;SDS011;42288;52.182;21.156;2024-01-27T05:04:31;20.27;;;4.37;;
16979;SDS011;42288;52.182;21.156;2024-01-27T05:06:57;18.87;;;4.37;;
16979;SDS011;42288;52.182;21.156;2024-01-27T05:09:22;23.83;;;5.03;;
16979;SDS011;42288;52.182;21.156;2024-01-27T05:11:48;22.03;;;4.30;;
16979;SDS011;42288;52.182;21.156;2024-01-27T05:14:16;18.67;;;3.93;;
16979;SDS011;42288;52.182;21.156;2024-01-27T05:16:42;29.57;;;5.30;;
16979;SDS011;42288;52.182;21.156;2024-01-27T05:19:07;22.80;;;4.10;;
16979;SDS011;42288;52.182;21.156;2024-01-27T05:21:33;25.90;;;4.77;;
16979;SDS011;42288;52.182;21.156;2024-01-27T05:23:58;21.80;;;4.50;;
16979;SDS011;42288;52.182;21.156;2024-01-27T05:26:24;20.80;;;4.23;;
16979;SDS011;42288;52.182;21.156;2024-01-27T05:28:49;19.13;;;4.93;;
16979;SDS011;42288;52.182;21.156;2024-01-27T05:31:15;15.60;;;3.93;;
16979;SDS011;42288;52.182;21.156;2024-01-27T05:33:42;25.70;;;4.60;;
16979;SDS011;42288;52.182;21.156;2024-01-27T05:36:07;18.90;;;4.03;;
16979;SDS011;42288;52.182;21.156;2024-01-27T05:38:33;25.50;;;4.40;;
16979;SDS011;42288;52.182;21.156;2024-01-27T05:41:02;21.93;;;3.57;;
16979;SDS011;42288;52.182;21.156;2024-01-27T05:43:27;22.70;;;4.73;;
16979;SDS011;42288;52.182;21.156;2024-01-27T05:45:53;21.90;;;3.70;;
16979;SDS011;42288;52.182;21.156;2024-01-27T05:48:19;21.60;;;4.07;;
16979;SDS011;42288;52.182;21.156;2024-01-27T05:50:54;26.53;;;4.40;;
16979;SDS011;42288;52.182;21.156;2024-01-27T05:53:23;28.53;;;4.73;;
16979;SDS011;42288;52.182;21.156;2024-01-27T05:55:49;23.30;;;4.63;;
16979;SDS011;42288;52.182;21.156;2024-01-27T05:58:14;20.07;;;4.20;;
16979;SDS011;42288;52.182;21.156;2024-01-27T06:00:42;24.87;;;3.70;;
16979;SDS011;42288;52.182;21.156;2024-01-27T06:03:09;22.80;;;4.27;;
16979;SDS011;42288;52.182;21.156;2024-01-27T06:05:35;19.90;;;4.13;;
16979;SDS011;42288;52.182;21.156;2024-01-27T06:08:00;20.10;;;4.73;;
16979;SDS011;42288;52.182;21.156;2024-01-27T06:10:26;16.10;;;3.87;;
16979;SDS011;42288;52.182;21.156;2024-01-27T06:12:51;18.93;;;4.07;;
16979;SDS011;42288;52.182;21.156;2024-01-27T06:15:17;31.43;;;5.03;;
16979;SDS011;42288;52.182;21.156;2024-01-27T06:17:42;17.40;;;3.47;;
16979;SDS011;42288;52.182;21.156;2024-01-27T06:20:08;19.27;;;4.00;;
16979;SDS011;42288;52.182;21.156;2024-01-27T06:22:34;20.53;;;3.77;;
16979;SDS011;42288;52.182;21.156;2024-01-27T06:24:59;17.37;;;3.30;;
16979;SDS011;42288;52.182;21.156;2024-01-27T06:27:25;28.70;;;4.50;;
16979;SDS011;42288;52.182;21.156;2024-01-27T06:29:50;15.97;;;3.23;;
16979;SDS011;42288;52.182;21.156;2024-01-27T06:32:15;15.77;;;3.77;;
16979;SDS011;42288;52.182;21.156;2024-01-27T06:34:41;14.80;;;3.97;;
16979;SDS011;42288;52.182;21.156;2024-01-27T06:37:07;22.63;;;4.17;;
16979;SDS011;42288;52.182;21.156;2024-01-27T06:39:32;20.30;;;4.10;;
16979;SDS011;42288;52.182;21.156;2024-01-27T06:41:58;23.27;;;4.63;;
16979;SDS011;42288;52.182;21.156;2024-01-27T06:44:23;18.07;;;3.60;;
16979;SDS011;42288;52.182;21.156;2024-01-27T06:46:49;18.23;;;3.70;;
16979;SDS011;42288;52.182;21.156;2024-01-27T06:49:18;20.60;;;4.07;;
16979;SDS011;42288;52.182;21.156;2024-01-27T06:51:44;24.70;;;4.67;;
16979;SDS011;42288;52.182;21.156;2024-01-27T06:54:10;26.37;;;4.90;;
16979;SDS011;42288;52.182;21.156;2024-01-27T06:56:35;32.60;;;5.33;;
16979;SDS011;42288;52.182;21.156;2024-01-27T06:59:01;29.13;;;6.07;;
16979;SDS011;42288;52.182;21.156;2024-01-27T07:01:27;24.20;;;4.73;;
16979;SDS011;42288;52.182;21.156;2024-01-27T07:03:52;24.20;;;5.67;;
16979;SDS011;42288;52.182;21.156;2024-01-27T07:06:18;24.33;;;6.53;;
16979;SDS011;42288;52.182;21.156;2024-01-27T07:08:44;32.23;;;5.93;;
16979;SDS011;42288;52.182;21.156;2024-01-27T07:11:09;22.77;;;5.50;;
16979;SDS011;42288;52.182;21.156;2024-01-27T07:13:35;33.20;;;6.10;;
16979;SDS011;42288;52.182;21.156;2024-01-27T07:16:01;26.17;;;6.07;;
16979;SDS011;42288;52.182;21.156;2024-01-27T07:18:27;26.53;;;6.17;;
16979;SDS011;42288;52.182;21.156;2024-01-27T07:20:54;36.77;;;6.73;;
16979;SDS011;42288;52.182;21.156;2024-01-27T07:23:19;29.10;;;6.93;;
16979;SDS011;42288;52.182;21.156;2024-01-27T07:25:45;33.23;;;6.93;;
16979;SDS011;42288;52.182;21.156;2024-01-27T07:28:11;32.03;;;7.03;;
16979;SDS011;42288;52.182;21.156;2024-01-27T07:30:37;34.43;;;6.70;;
16979;SDS011;42288;52.182;21.156;2024-01-27T07:33:03;25.23;;;5.67;;
16979;SDS011;42288;52.182;21.156;2024-01-27T07:35:29;33.93;;;7.47;;
16979;SDS011;42288;52.182;21.156;2024-01-27T07:37:54;30.30;;;7.10;;
16979;SDS011;42288;52.182;21.156;2024-01-27T07:40:20;34.60;;;6.97;;
16979;SDS011;42288;52.182;21.156;2024-01-27T07:42:45;29.93;;;7.10;;
16979;SDS011;42288;52.182;21.156;2024-01-27T07:45:11;30.97;;;6.87;;
16979;SDS011;42288;52.182;21.156;2024-01-27T07:47:36;19.23;;;5.53;;
16979;SDS011;42288;52.182;21.156;2024-01-27T07:50:02;27.87;;;6.17;;
16979;SDS011;42288;52.182;21.156;2024-01-27T07:52:27;27.43;;;6.47;;
16979;SDS011;42288;52.182;21.156;2024-01-27T07:54:53;27.70;;;6.93;;
16979;SDS011;42288;52.182;21.156;2024-01-27T07:57:19;33.60;;;6.70;;
16979;SDS011;42288;52.182;21.156;2024-01-27T07:59:45;17.43;;;5.93;;
16979;SDS011;42288;52.182;21.156;2024-01-27T08:02:11;30.67;;;6.87;;
16979;SDS011;42288;52.182;21.156;2024-01-27T08:04:37;19.43;;;5.80;;
16979;SDS011;42288;52.182;21.156;2024-01-27T08:07:03;21.70;;;6.00;;
16979;SDS011;42288;52.182;21.156;2024-01-27T08:09:34;23.50;;;5.87;;
16979;SDS011;42288;52.182;21.156;2024-01-27T08:12:00;16.67;;;5.60;;
16979;SDS011;42288;52.182;21.156;2024-01-27T08:14:26;23.20;;;6.77;;
16979;SDS011;42288;52.182;21.156;2024-01-27T08:16:54;20.13;;;6.17;;
16979;SDS011;42288;52.182;21.156;2024-01-27T08:19:21;21.07;;;6.20;;
16979;SDS011;42288;52.182;21.156;2024-01-27T08:21:46;28.40;;;6.60;;
16979;SDS011;42288;52.182;21.156;2024-01-27T08:24:13;17.10;;;6.67;;
16979;SDS011;42288;52.182;21.156;2024-01-27T08:26:38;22.97;;;7.90;;
16979;SDS011;42288;52.182;21.156;2024-01-27T08:29:04;19.50;;;6.40;;
16979;SDS011;42288;52.182;21.156;2024-01-27T08:31:30;18.07;;;6.00;;
16979;SDS011;42288;52.182;21.156;2024-01-27T08:33:55;26.87;;;6.50;;
16979;SDS011;42288;52.182;21.156;2024-01-27T08:36:22;21.60;;;5.80;;
16979;SDS011;42288;52.182;21.156;2024-01-27T08:38:47;16.53;;;5.77;;
16979;SDS011;42288;52.182;21.156;2024-01-27T08:41:13;18.43;;;6.40;;
16979;SDS011;42288;52.182;21.156;2024-01-27T08:43:38;24.47;;;7.03;;
16979;SDS011;42288;52.182;21.156;2024-01-27T08:46:04;20.50;;;5.80;;
16979;SDS011;42288;52.182;21.156;2024-01-27T08:48:29;23.33;;;6.83;;
16979;SDS011;42288;52.182;21.156;2024-01-27T08:50:55;21.90;;;6.97;;
16979;SDS011;42288;52.182;21.156;2024-01-27T08:53:20;20.10;;;6.60;;
16979;SDS011;42288;52.182;21.156;2024-01-27T08:55:46;26.43;;;6.57;;
16979;SDS011;42288;52.182;21.156;2024-01-27T08:58:12;20.03;;;6.10;;
16979;SDS011;42288;52.182;21.156;2024-01-27T09:00:37;17.83;;;6.07;;
16979;SDS011;42288;52.182;21.156;2024-01-27T09:03:03;21.27;;;5.93;;
16979;SDS011;42288;52.182;21.156;2024-01-27T09:05:28;20.60;;;6.73;;
16979;SDS011;42288;52.182;21.156;2024-01-27T09:07:54;15.03;;;6.40;;
16979;SDS011;42288;52.182;21.156;2024-01-27T09:10:19;18.67;;;6.10;;
16979;SDS011;42288;52.182;21.156;2024-01-27T09:12:45;11.60;;;5.87;;
16979;SDS011;42288;52.182;21.156;2024-01-27T09:15:11;19.60;;;5.50;;
16979;SDS011;42288;52.182;21.156;2024-01-27T09:17:36;17.77;;;6.17;;
16979;SDS011;42288;52.182;21.156;2024-01-27T09:20:02;19.83;;;5.87;;
16979;SDS011;42288;52.182;21.156;2024-01-27T09:22:28;20.40;;;6.10;;
16979;SDS011;42288;52.182;21.156;2024-01-27T09:24:53;15.67;;;6.33;;
16979;SDS011;42288;52.182;21.156;2024-01-27T09:27:20;17.00;;;5.50;;
16979;SDS011;42288;52.182;21.156;2024-01-27T09:29:45;18.17;;;6.33;;
16979;SDS011;42288;52.182;21.156;2024-01-27T09:32:11;26.23;;;6.53;;
16979;SDS011;42288;52.182;21.156;2024-01-27T09:34:36;19.20;;;6.83;;
16979;SDS011;42288;52.182;21.156;2024-01-27T09:37:02;18.23;;;6.97;;
16979;SDS011;42288;52.182;21.156;2024-01-27T09:39:28;17.40;;;6.53;;
16979;SDS011;42288;52.182;21.156;2024-01-27T09:41:53;17.27;;;7.33;;
16979;SDS011;42288;52.182;21.156;2024-01-27T09:44:20;24.27;;;7.13;;
16979;SDS011;42288;52.182;21.156;2024-01-27T09:46:46;19.67;;;6.50;;
16979;SDS011;42288;52.182;21.156;2024-01-27T09:49:13;23.03;;;7.77;;
16979;SDS011;42288;52.182;21.156;2024-01-27T09:51:41;18.40;;;6.87;;
16979;SDS011;42288;52.182;21.156;2024-01-27T09:54:07;18.43;;;6.33;;
16979;SDS011;42288;52.182;21.156;2024-01-27T09:56:32;19.00;;;6.53;;
16979;SDS011;42288;52.182;21.156;2024-01-27T09:58:58;18.80;;;5.80;;
16979;SDS011;42288;52.182;21.156;2024-01-27T10:01:25;18.50;;;7.03;;
16979;SDS011;42288;52.182;21.156;2024-01-27T10:03:53;15.70;;;6.33;;
16979;SDS011;42288;52.182;21.156;2024-01-27T10:06:19;15.00;;;5.87;;
16979;SDS011;42288;52.182;21.156;2024-01-27T10:08:51;19.67;;;7.50;;
16979;SDS011;42288;52.182;21.156;2024-01-27T10:11:19;13.13;;;5.50;;
16979;SDS011;42288;52.182;21.156;2024-01-27T10:13:53;14.30;;;5.43;;
16979;SDS011;42288;52.182;21.156;2024-01-27T10:16:19;16.80;;;5.03;;
16979;SDS011;42288;52.182;21.156;2024-01-27T10:18:45;8.47;;;4.30;;
16979;SDS011;42288;52.182;21.156;2024-01-27T10:21:14;11.87;;;4.57;;
16979;SDS011;42288;52.182;21.156;2024-01-27T10:23:44;9.93;;;3.80;;
16979;SDS011;42288;52.182;21.156;2024-01-27T10:26:10;8.50;;;3.37;;
16979;SDS011;42288;52.182;21.156;2024-01-27T10:28:35;5.63;;;3.47;;
16979;SDS011;42288;52.182;21.156;2024-01-27T10:31:08;11.00;;;5.00;;
16979;SDS011;42288;52.182;21.156;2024-01-27T10:33:34;10.07;;;3.40;;
16979;SDS011;42288;52.182;21.156;2024-01-27T10:36:00;8.67;;;3.20;;
16979;SDS011;42288;52.182;21.156;2024-01-27T10:38:38;6.70;;;3.27;;
16979;SDS011;42288;52.182;21.156;2024-01-27T10:41:07;11.20;;;4.13;;
16979;SDS011;42288;52.182;21.156;2024-01-27T10:43:35;7.47;;;3.30;;
16979;SDS011;42288;52.182;21.156;2024-01-27T10:46:03;8.47;;;3.80;;
16979;SDS011;42288;52.182;21.156;2024-01-27T10:48:31;4.53;;;2.90;;
16979;SDS011;42288;52.182;21.156;2024-01-27T10:51:00;10.80;;;4.13;;
16979;SDS011;42288;52.182;21.156;2024-01-27T10:53:32;7.47;;;3.87;;
16979;SDS011;42288;52.182;21.156;2024-01-27T10:56:00;8.83;;;4.57;;
16979;SDS011;42288;52.182;21.156;2024-01-27T10:58:28;7.10;;;4.07;;
16979;SDS011;42288;52.182;21.156;2024-01-27T11:00:55;10.53;;;4.10;;
16979;SDS011;42288;52.182;21.156;2024-01-27T11:03:21;8.83;;;4.20;;
16979;SDS011;42288;52.182;21.156;2024-01-27T11:05:48;6.87;;;3.20;;
16979;SDS011;42288;52.182;21.156;2024-01-27T11:08:16;7.47;;;4.17;;
16979;SDS011;42288;52.182;21.156;2024-01-27T11:10:43;8.80;;;4.77;;
16979;SDS011;42288;52.182;21.156;2024-01-27T11:13:09;13.03;;;4.50;;
16979;SDS011;42288;52.182;21.156;2024-01-27T11:15:35;7.93;;;4.60;;
16979;SDS011;42288;52.182;21.156;2024-01-27T11:18:01;11.87;;;4.40;;
16979;SDS011;42288;52.182;21.156;2024-01-27T11:20:32;10.60;;;5.57;;
16979;SDS011;42288;52.182;21.156;2024-01-27T11:23:08;10.43;;;3.93;;
16979;SDS011;42288;52.182;21.156;2024-01-27T11:25:35;12.10;;;6.07;;
16979;SDS011;42288;52.182;21.156;2024-01-27T11:28:10;18.53;;;9.43;;
16979;SDS011;42288;52.182;21.156;2024-01-27T11:30:45;8.00;;;4.47;;
16979;SDS011;42288;52.182;21.156;2024-01-27T11:33:12;10.90;;;5.00;;
16979;SDS011;42288;52.182;21.156;2024-01-27T11:35:38;12.20;;;5.83;;
16979;SDS011;42288;52.182;21.156;2024-01-27T11:38:04;8.70;;;5.17;;
16979;SDS011;42288;52.182;21.156;2024-01-27T11:40:29;11.50;;;4.60;;
16979;SDS011;42288;52.182;21.156;2024-01-27T11:42:59;6.17;;;4.80;;
16979;SDS011;42288;52.182;21.156;2024-01-27T11:45:25;8.43;;;4.93;;
16979;SDS011;42288;52.182;21.156;2024-01-27T11:47:53;6.73;;;4.83;;
16979;SDS011;42288;52.182;21.156;2024-01-27T11:50:20;8.23;;;6.47;;
16979;SDS011;42288;52.182;21.156;2024-01-27T11:52:46;7.80;;;5.60;;
16979;SDS011;42288;52.182;21.156;2024-01-27T11:55:12;10.40;;;4.70;;
16979;SDS011;42288;52.182;21.156;2024-01-27T11:57:40;9.73;;;6.13;;
16979;SDS011;42288;52.182;21.156;2024-01-27T12:00:06;10.10;;;5.83;;
16979;SDS011;42288;52.182;21.156;2024-01-27T12:02:34;6.83;;;5.03;;
16979;SDS011;42288;52.182;21.156;2024-01-27T12:05:00;6.00;;;4.23;;
16979;SDS011;42288;52.182;21.156;2024-01-27T12:07:26;9.03;;;5.57;;
16979;SDS011;42288;52.182;21.156;2024-01-27T12:09:51;8.93;;;5.87;;
16979;SDS011;42288;52.182;21.156;2024-01-27T12:12:17;10.47;;;5.70;;
16979;SDS011;42288;52.182;21.156;2024-01-27T12:14:49;8.93;;;5.70;;
16979;SDS011;42288;52.182;21.156;2024-01-27T12:17:16;12.17;;;6.93;;
16979;SDS011;42288;52.182;21.156;2024-01-27T12:19:45;9.63;;;6.13;;
16979;SDS011;42288;52.182;21.156;2024-01-27T12:22:20;10.63;;;6.17;;
16979;SDS011;42288;52.182;21.156;2024-01-27T12:24:53;8.30;;;5.60;;
16979;SDS011;42288;52.182;21.156;2024-01-27T12:27:20;10.07;;;5.73;;
16979;SDS011;42288;52.182;21.156;2024-01-27T12:29:47;10.40;;;5.73;;
16979;SDS011;42288;52.182;21.156;2024-01-27T12:32:14;9.17;;;5.47;;
16979;SDS011;42288;52.182;21.156;2024-01-27T12:34:41;7.93;;;5.23;;
16979;SDS011;42288;52.182;21.156;2024-01-27T12:37:08;10.90;;;6.30;;
16979;SDS011;42288;52.182;21.156;2024-01-27T12:39:35;9.17;;;5.47;;
16979;SDS011;42288;52.182;21.156;2024-01-27T12:42:01;8.50;;;6.00;;
16979;SDS011;42288;52.182;21.156;2024-01-27T12:44:26;8.27;;;5.20;;
16979;SDS011;42288;52.182;21.156;2024-01-27T12:46:52;13.03;;;6.30;;
16979;SDS011;42288;52.182;21.156;2024-01-27T12:49:18;12.60;;;7.07;;
16979;SDS011;42288;52.182;21.156;2024-01-27T12:51:44;8.83;;;5.80;;
16979;SDS011;42288;52.182;21.156;2024-01-27T12:54:10;11.73;;;7.20;;
16979;SDS011;42288;52.182;21.156;2024-01-27T12:56:36;7.43;;;5.13;;
16979;SDS011;42288;52.182;21.156;2024-01-27T12:59:01;8.97;;;5.20;;
16979;SDS011;42288;52.182;21.156;2024-01-27T13:01:27;7.67;;;4.90;;
16979;SDS011;42288;52.182;21.156;2024-01-27T13:03:53;7.60;;;5.17;;
16979;SDS011;42288;52.182;21.156;2024-01-27T13:06:18;8.63;;;5.13;;
16979;SDS011;42288;52.182;21.156;2024-01-27T13:08:45;9.13;;;5.27;;
16979;SDS011;42288;52.182;21.156;2024-01-27T13:11:11;7.27;;;4.70;;
16979;SDS011;42288;52.182;21.156;2024-01-27T13:13:38;7.23;;;4.57;;
16979;SDS011;42288;52.182;21.156;2024-01-27T13:16:05;7.53;;;4.20;;
16979;SDS011;42288;52.182;21.156;2024-01-27T13:18:31;7.67;;;4.70;;
16979;SDS011;42288;52.182;21.156;2024-01-27T13:20:57;6.80;;;4.33;;
16979;SDS011;42288;52.182;21.156;2024-01-27T13:23:22;8.67;;;4.53;;
16979;SDS011;42288;52.182;21.156;2024-01-27T13:25:48;4.90;;;3.43;;
16979;SDS011;42288;52.182;21.156;2024-01-27T13:28:13;5.83;;;4.13;;
16979;SDS011;42288;52.182;21.156;2024-01-27T13:30:39;6.70;;;4.10;;
16979;SDS011;42288;52.182;21.156;2024-01-27T13:33:05;5.83;;;3.83;;
16979;SDS011;42288;52.182;21.156;2024-01-27T13:35:30;8.13;;;4.20;;
16979;SDS011;42288;52.182;21.156;2024-01-27T13:37:56;7.20;;;4.30;;
16979;SDS011;42288;52.182;21.156;2024-01-27T13:40:21;8.80;;;4.83;;
16979;SDS011;42288;52.182;21.156;2024-01-27T13:42:47;10.17;;;5.03;;
16979;SDS011;42288;52.182;21.156;2024-01-27T13:45:12;6.90;;;4.07;;
16979;SDS011;42288;52.182;21.156;2024-01-27T13:47:38;7.50;;;4.57;;
16979;SDS011;42288;52.182;21.156;2024-01-27T13:50:04;10.37;;;6.03;;
16979;SDS011;42288;52.182;21.156;2024-01-27T13:52:30;8.70;;;5.47;;
16979;SDS011;42288;52.182;21.156;2024-01-27T13:54:55;11.67;;;5.93;;
16979;SDS011;42288;52.182;21.156;2024-01-27T13:57:21;8.77;;;5.17;;
16979;SDS011;42288;52.182;21.156;2024-01-27T13:59:47;6.60;;;4.63;;
16979;SDS011;42288;52.182;21.156;2024-01-27T14:02:12;6.63;;;4.93;;
16979;SDS011;42288;52.182;21.156;2024-01-27T14:04:38;7.07;;;4.63;;
16979;SDS011;42288;52.182;21.156;2024-01-27T14:07:05;7.80;;;5.50;;
16979;SDS011;42288;52.182;21.156;2024-01-27T14:09:34;10.83;;;5.77;;
16979;SDS011;42288;52.182;21.156;2024-01-27T14:12:00;8.17;;;5.00;;
16979;SDS011;42288;52.182;21.156;2024-01-27T14:14:26;8.70;;;5.33;;
16979;SDS011;42288;52.182;21.156;2024-01-27T14:16:52;6.90;;;4.63;;